Tuxford, Canada
Current Conditions -  °F | °C
As of 12:00 PM on Saturday 25 Oct 2014 (Local Time) from CYQR Reporting Station
Broken Clouds Broken Clouds  
Wind Chill: 50°   Ceiling: 27000
Heat Index: 50°   Visibility: 15mi
Dew Point: 36°   Wind: 0mph
Humidity: 58%   Direction: NA
Pressure: 30.07"   Gusts: NA
Location:  50.58°N, 105.58°W
Report Text: CYQR 251800Z 00000KT 15SM FEW160 BKN270 10/02 A3007 RMK AC1CI5 AC TR SLP204
Loading
Personal Weather Stations






























Interactive Weather Map
Tropical Storm Tracking
New forecast layout! Learn more

10-Day Weather Forecast

Advertisements
Track Severe Weather on mobile